Tire Hill, PA

7:40 PM EDT on September 04, 2015 (GMT -0400)
Soap Hollow Road | | Change Station
CLOSE
Current Station
Personal Weather Station
Location: Johnstown, PA
Elevation: 1598 ft
Nearby Weather Stations

Elev 1598 ft 40.26 °N, 78.94 °W | Updated 1 minute ago

Overcast
Overcast
66.9 °F
Feels Like 66.9 °F
N
0.0
Wind Variable Wind from SW

Today
High -- | Low -- °F
--% Chance of Precip.
Yesterday
High -- | Low -- °F
Precip. -- in
6:45 AM 7:42 PM
Waning Gibbous, 55% visible
Pressure 30.12 in
Visibility 10.0 miles
Clouds Mostly Cloudy 12000 ft
Dew Point 66 °F
Humidity 96%
Rainfall 0.02 in
Snow Depth Not available.
UV 0 out of 12
Pollen 8.50 out of 12
Air Quality Not available.
Flu Activity Not available.
METAR KJST 042254Z AUTO 19003KT 10SM BKN120 21/16 A3016 RMK AO2 RAE2156 SLP200 P0000 T02110161
Pressure 30.12 in
Visibility 10.0 miles
Clouds Mostly Cloudy 12000 ft
Dew Point 66 °F
Humidity 96%
Rainfall 0.02 in
Snow Depth Not available.
UV 0 out of 12
Pollen 8.50 out of 12
Air Quality Not available.
Flu Activity Not available.
METAR KJST 042254Z AUTO 19003KT 10SM BKN120 21/16 A3016 RMK AO2 RAE2156 SLP200 P0000 T02110161

10-Day Weather Forecast

×

Almanac

Astronomy

Sep. 04, 2015 Rise Set
Actual Time
Civil Twilight
Nautical Twilight
Astronomical Twilight
Moon
Length of Visible Light
Length of Day
Tomorrow will be .
, % of the Moon is Illuminated

Today's Extremes

State Highs State Lows

Community

WunderPhotos

Upload Photos

1,852,338 photos uploaded!

WunderBlogs® & News

Nearby

Air Quality

  Air Quality AQ Index Pollutant
Not available.

Snow Depth

Station Depth Elevation

Earthquake Activity

City Distance Mag. Time & Date
Minimum magnitude displayed is 2.5.

Coastal Water Temperatures

Place Temperature

Stations

Nearby Weather Stations

Station Location Temp. Windchill Dew Point Humidity Wind Precip. Elev Updated Type